createdAt,value
2022-08-24T00:03:08.797Z,0.3
2022-08-24T00:08:08.728Z,0.35
2022-08-24T00:13:08.728Z,0.16
2022-08-24T00:18:08.733Z,0.22
2022-08-24T00:23:08.707Z,0.2
2022-08-24T00:28:08.711Z,0.21
2022-08-24T00:33:08.705Z,0.26
2022-08-24T00:38:08.720Z,0.2
2022-08-24T00:43:08.714Z,0.21
2022-08-24T00:48:08.730Z,0.28
2022-08-24T00:53:08.718Z,0.2
2022-08-24T00:58:08.720Z,0.26
2022-08-24T01:03:08.706Z,0.32
2022-08-24T01:08:08.721Z,0.3
2022-08-24T01:13:08.752Z,0.23
2022-08-24T01:18:08.720Z,0.18
2022-08-24T01:23:08.743Z,0.24
2022-08-24T01:28:08.708Z,0.14
2022-08-24T01:33:08.738Z,0.21
2022-08-24T01:38:08.697Z,0.15
2022-08-24T01:43:08.741Z,0.19
2022-08-24T01:48:08.723Z,0.2
2022-08-24T01:53:08.737Z,0.25
2022-08-24T01:58:08.759Z,0.21
2022-08-24T02:03:08.786Z,0.16
2022-08-24T02:08:08.742Z,0.2
2022-08-24T02:13:08.757Z,0.19
2022-08-24T02:18:08.714Z,0.24
2022-08-24T02:23:08.718Z,0.25
2022-08-24T02:28:08.735Z,0.21
2022-08-24T02:33:08.737Z,0.22
2022-08-24T02:38:08.700Z,0.22
2022-08-24T02:43:08.733Z,0.2
2022-08-24T02:48:08.734Z,0.34
2022-08-24T02:53:08.757Z,0.24
2022-08-24T02:58:08.729Z,0.34
2022-08-24T03:03:08.753Z,0.3
2022-08-24T03:08:08.824Z,0.31
2022-08-24T03:13:08.804Z,0.23
2022-08-24T03:18:08.753Z,0.27
2022-08-24T03:23:08.721Z,0.16
2022-08-24T03:28:11.104Z,0.24
2022-08-24T03:33:08.768Z,0.23
2022-08-24T03:38:08.756Z,0.24
2022-08-24T03:43:08.772Z,0.27
2022-08-24T03:48:08.767Z,0.19
2022-08-24T03:53:08.874Z,0.15
2022-08-24T03:58:08.778Z,0.19
2022-08-24T04:03:08.754Z,0.18
2022-08-24T04:08:08.734Z,0.3
2022-08-24T04:13:08.775Z,0.23
2022-08-24T04:18:08.739Z,0.24
2022-08-24T04:23:08.792Z,0.2
2022-08-24T04:28:08.783Z,0.15
2022-08-24T04:33:08.790Z,0.16
2022-08-24T04:38:08.811Z,0.16
2022-08-24T04:43:08.799Z,0.2
2022-08-24T04:48:08.834Z,0.16
2022-08-24T04:53:08.770Z,0.14
2022-08-24T04:58:08.788Z,0.14
2022-08-24T05:03:08.788Z,0.2
2022-08-24T05:08:08.783Z,0.13
2022-08-24T05:13:08.770Z,0.12
2022-08-24T05:18:08.811Z,0.18
2022-08-24T05:23:08.994Z,0.14
2022-08-24T05:28:08.783Z,0.23
2022-08-24T05:33:08.794Z,0.1
2022-08-24T05:38:08.795Z,0.18
2022-08-24T05:43:08.821Z,0.19
2022-08-24T05:48:08.824Z,0.14
2022-08-24T05:53:08.842Z,0.11
2022-08-24T05:58:08.790Z,0.09
2022-08-24T06:03:08.847Z,0.11
2022-08-24T06:08:08.796Z,0.2
2022-08-24T06:13:08.845Z,0.12
2022-08-24T06:18:09.016Z,0.11
2022-08-24T06:23:08.813Z,0.14
2022-08-24T06:28:08.843Z,0.2
2022-08-24T06:33:08.847Z,0.15
2022-08-24T06:38:08.842Z,0.16
2022-08-24T06:43:08.887Z,0.2
2022-08-24T06:48:08.863Z,0.17
2022-08-24T06:53:08.877Z,0.13
2022-08-24T06:58:09.179Z,0.11
2022-08-24T07:03:08.892Z,0.21
2022-08-24T07:08:08.838Z,0.18
2022-08-24T07:13:08.825Z,0.19
2022-08-24T07:18:08.845Z,0.2
2022-08-24T07:23:08.851Z,0.12
2022-08-24T07:28:10.172Z,0.15
2022-08-24T07:33:08.858Z,0.2
2022-08-24T07:38:08.840Z,0.22
2022-08-24T07:43:08.866Z,0.3
2022-08-24T07:48:09.740Z,0.21
2022-08-24T07:53:12.455Z,0.23
2022-08-24T07:58:08.875Z,0.25
2022-08-24T08:03:08.914Z,0.19
2022-08-24T08:08:08.871Z,0.24
2022-08-24T08:13:08.876Z,0.13
2022-08-24T08:18:08.878Z,0.15
2022-08-24T08:23:08.881Z,0.16
2022-08-24T08:28:18.360Z,0.28
2022-08-24T08:33:08.885Z,0.26
2022-08-24T08:38:08.895Z,0.29
2022-08-24T08:43:08.951Z,0.31
2022-08-24T08:48:08.911Z,0.26
2022-08-24T08:53:08.869Z,0.26
2022-08-24T08:58:08.969Z,0.23
2022-08-24T09:03:08.903Z,0.26
2022-08-24T09:08:08.930Z,0.23
2022-08-24T09:13:08.876Z,0.29
2022-08-24T09:18:08.923Z,0.36
2022-08-24T09:23:08.896Z,0.27
2022-08-24T09:28:08.921Z,0.35
2022-08-24T09:33:08.881Z,0.32
2022-08-24T09:38:08.897Z,0.29
2022-08-24T09:43:08.943Z,0.33
2022-08-24T09:48:08.920Z,0.4
2022-08-24T09:53:08.918Z,0.37
2022-08-24T09:58:08.910Z,0.44
2022-08-24T10:03:08.924Z,0.4
2022-08-24T10:08:08.933Z,0.45
2022-08-24T10:13:08.911Z,0.5
2022-08-24T10:18:08.924Z,0.4
2022-08-24T10:23:08.921Z,0.44
2022-08-24T10:28:08.938Z,0.47
2022-08-24T10:33:08.950Z,0.37
2022-08-24T10:38:08.945Z,0.35
2022-08-24T10:43:08.933Z,0.45
2022-08-24T10:48:08.937Z,0.54
2022-08-24T10:53:08.942Z,0.48
2022-08-24T10:58:09.073Z,0.56
2022-08-24T11:03:08.951Z,0.53
2022-08-24T11:08:08.959Z,0.45
2022-08-24T11:13:08.930Z,0.45
2022-08-24T11:18:08.980Z,0.63
2022-08-24T11:23:08.968Z,0.48
2022-08-24T11:28:08.965Z,0.39
2022-08-24T11:33:08.983Z,0.52
2022-08-24T11:38:08.936Z,0.63
2022-08-24T11:43:08.967Z,0.62
2022-08-24T11:48:12.288Z,0.41
2022-08-24T11:53:11.305Z,0.67
2022-08-24T11:58:09.109Z,0.54
2022-08-24T12:03:09.116Z,0.69
2022-08-24T12:08:09.038Z,0.51
2022-08-24T12:13:09.054Z,0.57
2022-08-24T12:18:08.975Z,0.66
2022-08-24T12:23:09.012Z,0.67
2022-08-24T12:28:09.037Z,0.55
2022-08-24T12:33:09.046Z,0.7
2022-08-24T12:38:09.026Z,0.54
2022-08-24T12:43:09.040Z,0.69
2022-08-24T12:48:09.014Z,0.79
2022-08-24T12:53:12.218Z,0.69
2022-08-24T12:58:33.470Z,0.59
2022-08-24T13:03:08.995Z,0.53
2022-08-24T13:08:08.985Z,0.5
2022-08-24T13:13:09.020Z,0.45
2022-08-24T13:18:09.605Z,0.76
2022-08-24T13:23:09.004Z,0.67
2022-08-24T13:28:09.032Z,0.78
2022-08-24T13:33:09.041Z,0.52
2022-08-24T13:38:09.007Z,0.53
2022-08-24T13:43:09.023Z,0.64
2022-08-24T13:48:09.026Z,0.69
2022-08-24T13:53:09.004Z,0.76
2022-08-24T13:58:09.123Z,0.79
2022-08-24T14:03:09.037Z,0.73
2022-08-24T14:08:09.040Z,0.54
2022-08-24T14:13:09.047Z,0.79
2022-08-24T14:18:09.056Z,0.85
2022-08-24T14:23:09.042Z,0.76
2022-08-24T14:28:09.053Z,0.73
2022-08-24T14:33:09.060Z,0.67
2022-08-24T14:38:12.662Z,0.9
2022-08-24T14:43:09.055Z,0.65
2022-08-24T14:48:09.064Z,0.74
2022-08-24T14:53:09.046Z,0.8
2022-08-24T14:58:09.090Z,0.63
2022-08-24T15:03:09.053Z,0.56
2022-08-24T15:08:09.045Z,0.8
2022-08-24T15:13:09.072Z,0.91
2022-08-24T15:18:09.353Z,0.85
2022-08-24T15:23:09.045Z,0.94
2022-08-24T15:28:09.076Z,0.93
2022-08-24T15:33:09.065Z,0.75
2022-08-24T15:38:09.104Z,0.81
2022-08-24T15:43:09.072Z,0.73
2022-08-24T15:48:09.055Z,0.74
2022-08-24T15:53:09.072Z,0.75
2022-08-24T15:58:09.076Z,0.81
2022-08-24T16:03:09.072Z,0.47
2022-08-24T16:08:09.073Z,0.46
2022-08-24T16:13:09.081Z,0.54
2022-08-24T16:18:09.089Z,0.56
2022-08-24T16:23:09.062Z,0.91
2022-08-24T16:28:09.893Z,0.7
2022-08-24T16:33:09.092Z,0.45
2022-08-24T16:38:09.089Z,0.56
2022-08-24T16:43:09.089Z,0.58
2022-08-24T16:48:09.102Z,0.6
2022-08-24T16:53:09.080Z,0.64
2022-08-24T16:58:09.085Z,0.61
2022-08-24T17:03:12.878Z,0.5
2022-08-24T17:08:09.094Z,0.79
2022-08-24T17:13:09.124Z,0.74
2022-08-24T17:18:09.106Z,0.59
2022-08-24T17:23:09.135Z,0.64
2022-08-24T17:28:09.110Z,0.86
2022-08-24T17:33:09.121Z,0.62
2022-08-24T17:38:09.117Z,0.79
2022-08-24T17:43:09.075Z,0.51
2022-08-24T17:48:09.102Z,0.81
2022-08-24T17:53:09.234Z,0.67
2022-08-24T17:58:09.091Z,0.78
2022-08-24T18:03:11.344Z,0.86
2022-08-24T18:08:09.129Z,0.7
2022-08-24T18:13:09.143Z,0.85
2022-08-24T18:18:09.691Z,0.76
2022-08-24T18:23:11.233Z,0.56
2022-08-24T18:28:09.156Z,0.8
2022-08-24T18:33:09.127Z,0.58
2022-08-24T18:38:09.106Z,0.69
2022-08-24T18:43:09.127Z,0.45
2022-08-24T18:48:09.083Z,0.76
2022-08-24T18:53:09.115Z,0.77
2022-08-24T18:58:09.118Z,0.92
2022-08-24T19:03:09.130Z,0.61
2022-08-24T19:08:09.113Z,0.58
2022-08-24T19:13:09.171Z,0.47
2022-08-24T19:18:09.118Z,0.65
2022-08-24T19:23:09.112Z,0.67
2022-08-24T19:28:09.154Z,0.74
2022-08-24T19:33:13.355Z,0.73
2022-08-24T19:38:09.118Z,0.8
2022-08-24T19:43:09.097Z,0.92
2022-08-24T19:48:09.097Z,0.84
2022-08-24T19:53:09.164Z,0.75
2022-08-24T19:58:09.168Z,0.7
2022-08-24T20:03:09.157Z,0.87
2022-08-24T20:08:09.134Z,0.71
2022-08-24T20:13:09.111Z,0.66
2022-08-24T20:18:09.127Z,0.61
2022-08-24T20:23:09.142Z,0.75
2022-08-24T20:28:28.065Z,0.73
2022-08-24T20:33:09.164Z,0.68
2022-08-24T20:38:09.191Z,0.73
2022-08-24T20:43:09.159Z,0.62
2022-08-24T20:48:09.169Z,0.75
2022-08-24T20:53:09.127Z,0.73
2022-08-24T20:58:09.165Z,0.96
2022-08-24T21:03:09.173Z,0.65
2022-08-24T21:08:09.164Z,0.62
2022-08-24T21:13:09.143Z,0.48
2022-08-24T21:18:09.143Z,0.84
2022-08-24T21:23:09.183Z,0.72
2022-08-24T21:28:09.131Z,0.59
2022-08-24T21:33:09.174Z,0.87
2022-08-24T21:38:09.201Z,0.59
2022-08-24T21:43:09.364Z,0.59
2022-08-24T21:48:09.189Z,0.67
2022-08-24T21:53:09.470Z,0.45
2022-08-24T21:58:09.197Z,0.34
2022-08-24T22:03:09.219Z,0.43
2022-08-24T22:08:09.198Z,0.53
2022-08-24T22:13:09.479Z,0.54
2022-08-24T22:18:09.191Z,0.71
2022-08-24T22:23:09.197Z,0.59
2022-08-24T22:28:09.208Z,0.59
2022-08-24T22:33:09.190Z,0.35
2022-08-24T22:38:09.192Z,0.47
2022-08-24T22:43:09.208Z,0.58
2022-08-24T22:48:09.244Z,0.52
2022-08-24T22:53:09.218Z,0.36
2022-08-24T22:58:09.200Z,0.54
2022-08-24T23:03:09.200Z,0.6
2022-08-24T23:08:09.197Z,0.62
2022-08-24T23:13:09.182Z,0.66
2022-08-24T23:18:09.212Z,0.71
2022-08-24T23:23:09.205Z,0.59
2022-08-24T23:28:09.213Z,0.7
2022-08-24T23:33:09.214Z,0.48
2022-08-24T23:38:09.209Z,0.58
2022-08-24T23:43:09.218Z,0.62
2022-08-24T23:48:09.176Z,0.48
2022-08-24T23:53:09.212Z,0.5
2022-08-24T23:58:09.252Z,0.73
